sensor_id;sensor_type;location;lat;lon;timestamp;pressure;altitude;pressure_sealevel;temperature;humidity
27864;BME280;15980;51.092;13.916;2023-08-12T00:09:17;99103.00;;;16.25;88.27
27864;BME280;15980;51.092;13.916;2023-08-12T00:19:18;99111.19;;;16.18;89.32
27864;BME280;15980;51.092;13.916;2023-08-12T00:29:18;99103.63;;;16.15;88.77
27864;BME280;15980;51.092;13.916;2023-08-12T00:39:18;99107.19;;;16.16;88.53
27864;BME280;15980;51.092;13.916;2023-08-12T00:49:19;99097.22;;;16.11;88.52
27864;BME280;15980;51.092;13.916;2023-08-12T00:59:20;99082.41;;;16.03;89.38
27864;BME280;15980;51.092;13.916;2023-08-12T01:09:20;99083.97;;;16.01;88.47
27864;BME280;15980;51.092;13.916;2023-08-12T01:19:35;99086.28;;;15.99;88.85
27864;BME280;15980;51.092;13.916;2023-08-12T01:29:41;99079.66;;;16.03;88.36
27864;BME280;15980;51.092;13.916;2023-08-12T01:39:43;99065.38;;;16.01;88.44
27864;BME280;15980;51.092;13.916;2023-08-12T01:49:45;99063.13;;;16.07;88.98
27864;BME280;15980;51.092;13.916;2023-08-12T01:59:45;99057.72;;;16.14;89.39
27864;BME280;15980;51.092;13.916;2023-08-12T02:09:46;99051.50;;;16.21;89.02
27864;BME280;15980;51.092;13.916;2023-08-12T02:19:46;99041.34;;;16.28;88.32
27864;BME280;15980;51.092;13.916;2023-08-12T02:29:46;99029.72;;;16.42;86.71
27864;BME280;15980;51.092;13.916;2023-08-12T02:39:47;99021.16;;;16.51;86.34
27864;BME280;15980;51.092;13.916;2023-08-12T02:49:47;99002.19;;;16.53;85.49
27864;BME280;15980;51.092;13.916;2023-08-12T02:59:47;99007.75;;;16.53;84.53
27864;BME280;15980;51.092;13.916;2023-08-12T03:09:48;99006.66;;;16.61;84.10
27864;BME280;15980;51.092;13.916;2023-08-12T03:19:48;99009.16;;;16.43;84.71
27864;BME280;15980;51.092;13.916;2023-08-12T03:29:48;99016.00;;;16.26;85.16
27864;BME280;15980;51.092;13.916;2023-08-12T03:39:49;99012.16;;;16.08;86.98
27864;BME280;15980;51.092;13.916;2023-08-12T03:49:49;99002.94;;;16.04;87.80
27864;BME280;15980;51.092;13.916;2023-08-12T03:59:49;98991.28;;;16.14;86.78
27864;BME280;15980;51.092;13.916;2023-08-12T04:09:49;98995.13;;;16.32;86.28
27864;BME280;15980;51.092;13.916;2023-08-12T04:19:50;98980.50;;;16.58;85.84
27864;BME280;15980;51.092;13.916;2023-08-12T04:29:50;98976.88;;;17.07;83.68
27864;BME280;15980;51.092;13.916;2023-08-12T04:39:50;98988.09;;;17.51;82.43
27864;BME280;15980;51.092;13.916;2023-08-12T04:49:51;98983.09;;;18.01;80.19
27864;BME280;15980;51.092;13.916;2023-08-12T04:59:53;98994.59;;;18.51;78.11
27864;BME280;15980;51.092;13.916;2023-08-12T05:09:53;98980.88;;;18.65;78.21
27864;BME280;15980;51.092;13.916;2023-08-12T05:19:53;98981.28;;;18.71;78.78
27864;BME280;15980;51.092;13.916;2023-08-12T05:29:54;98985.38;;;18.95;77.38
27864;BME280;15980;51.092;13.916;2023-08-12T05:39:54;98981.22;;;19.43;74.28
27864;BME280;15980;51.092;13.916;2023-08-12T05:49:54;98965.50;;;20.19;72.77
27864;BME280;15980;51.092;13.916;2023-08-12T05:59:55;98969.44;;;20.75;70.64
27864;BME280;15980;51.092;13.916;2023-08-12T06:09:55;98968.19;;;21.04;69.93
27864;BME280;15980;51.092;13.916;2023-08-12T06:19:55;98962.16;;;21.23;68.92
27864;BME280;15980;51.092;13.916;2023-08-12T06:29:56;98953.66;;;21.52;67.75
27864;BME280;15980;51.092;13.916;2023-08-12T06:39:56;98949.00;;;21.93;67.41
27864;BME280;15980;51.092;13.916;2023-08-12T06:49:56;98954.34;;;22.70;64.02
27864;BME280;15980;51.092;13.916;2023-08-12T06:59:56;98949.19;;;23.37;61.82
27864;BME280;15980;51.092;13.916;2023-08-12T07:09:57;98943.69;;;23.30;61.74
27864;BME280;15980;51.092;13.916;2023-08-12T07:19:57;98942.47;;;24.15;59.66
27864;BME280;15980;51.092;13.916;2023-08-12T07:29:57;98953.06;;;24.78;57.87
27864;BME280;15980;51.092;13.916;2023-08-12T07:39:58;98944.19;;;24.79;58.19
27864;BME280;15980;51.092;13.916;2023-08-12T07:49:58;98940.63;;;24.55;60.25
27864;BME280;15980;51.092;13.916;2023-08-12T07:59:58;98925.38;;;24.56;60.55
27864;BME280;15980;51.092;13.916;2023-08-12T08:09:58;98928.00;;;24.87;60.51
27864;BME280;15980;51.092;13.916;2023-08-12T08:19:59;98918.38;;;25.83;56.51
27864;BME280;15980;51.092;13.916;2023-08-12T08:29:59;98907.91;;;26.49;53.92
27864;BME280;15980;51.092;13.916;2023-08-12T08:39:59;98907.28;;;26.86;53.16
27864;BME280;15980;51.092;13.916;2023-08-12T08:50:00;98911.31;;;27.02;52.11
27864;BME280;15980;51.092;13.916;2023-08-12T09:00:00;98924.41;;;26.63;52.57
27864;BME280;15980;51.092;13.916;2023-08-12T09:10:02;98919.88;;;26.37;54.38
27864;BME280;15980;51.092;13.916;2023-08-12T09:20:03;98910.38;;;26.30;54.96
27864;BME280;15980;51.092;13.916;2023-08-12T09:30:04;98898.75;;;26.61;54.68
27864;BME280;15980;51.092;13.916;2023-08-12T09:40:05;98886.41;;;27.00;51.31
27864;BME280;15980;51.092;13.916;2023-08-12T09:50:06;98887.84;;;27.46;51.33
27864;BME280;15980;51.092;13.916;2023-08-12T10:00:07;98862.09;;;28.21;51.07
27864;BME280;15980;51.092;13.916;2023-08-12T10:10:08;98869.03;;;29.82;45.16
27864;BME280;15980;51.092;13.916;2023-08-12T10:20:12;98858.38;;;30.81;39.79
27864;BME280;15980;51.092;13.916;2023-08-12T10:30:13;98858.31;;;31.27;38.59
27864;BME280;15980;51.092;13.916;2023-08-12T10:40:21;98845.81;;;31.42;37.55
27864;BME280;15980;51.092;13.916;2023-08-12T10:50:25;98841.91;;;31.64;38.59
27864;BME280;15980;51.092;13.916;2023-08-12T11:00:26;98837.09;;;30.76;39.46
27864;BME280;15980;51.092;13.916;2023-08-12T11:10:30;98824.38;;;30.44;39.81
27864;BME280;15980;51.092;13.916;2023-08-12T11:20:32;98830.75;;;29.99;42.05
27864;BME280;15980;51.092;13.916;2023-08-12T11:30:32;98816.91;;;29.92;42.63
27864;BME280;15980;51.092;13.916;2023-08-12T11:40:32;98803.75;;;30.53;41.25
27864;BME280;15980;51.092;13.916;2023-08-12T11:50:34;98801.56;;;30.66;40.25
27864;BME280;15980;51.092;13.916;2023-08-12T12:00:34;98800.72;;;30.01;41.66
27864;BME280;15980;51.092;13.916;2023-08-12T12:10:35;98782.41;;;29.57;42.26
27864;BME280;15980;51.092;13.916;2023-08-12T12:20:35;98794.28;;;30.01;42.17
27864;BME280;15980;51.092;13.916;2023-08-12T12:30:36;98793.44;;;31.10;41.44
27864;BME280;15980;51.092;13.916;2023-08-12T12:40:36;98783.69;;;31.86;39.35
27864;BME280;15980;51.092;13.916;2023-08-12T12:50:37;98773.53;;;30.86;41.34
27864;BME280;15980;51.092;13.916;2023-08-12T13:00:37;98765.69;;;31.14;42.56
27864;BME280;15980;51.092;13.916;2023-08-12T13:10:37;98750.59;;;31.83;42.09
27864;BME280;15980;51.092;13.916;2023-08-12T13:20:38;98750.06;;;30.77;43.20
27864;BME280;15980;51.092;13.916;2023-08-12T13:30:38;98738.00;;;31.18;42.43
27864;BME280;15980;51.092;13.916;2023-08-12T13:40:38;98726.34;;;30.65;43.40
27864;BME280;15980;51.092;13.916;2023-08-12T13:50:39;98716.44;;;30.60;42.39
27864;BME280;15980;51.092;13.916;2023-08-12T14:00:39;98707.44;;;31.22;41.54
27864;BME280;15980;51.092;13.916;2023-08-12T14:10:39;98721.47;;;31.50;41.09
27864;BME280;15980;51.092;13.916;2023-08-12T14:20:39;98709.78;;;31.81;40.79
27864;BME280;15980;51.092;13.916;2023-08-12T14:30:40;98685.47;;;32.04;40.80
27864;BME280;15980;51.092;13.916;2023-08-12T14:40:40;98688.41;;;32.63;39.01
27864;BME280;15980;51.092;13.916;2023-08-12T14:50:40;98677.88;;;31.71;41.48
27864;BME280;15980;51.092;13.916;2023-08-12T15:00:41;98649.72;;;31.82;41.90
27864;BME280;15980;51.092;13.916;2023-08-12T15:10:41;98633.69;;;31.94;41.34
27864;BME280;15980;51.092;13.916;2023-08-12T15:20:41;98628.28;;;31.58;40.16
27864;BME280;15980;51.092;13.916;2023-08-12T15:30:42;98628.69;;;31.65;41.95
27864;BME280;15980;51.092;13.916;2023-08-12T15:40:42;98627.75;;;31.44;40.68
27864;BME280;15980;51.092;13.916;2023-08-12T15:50:46;98626.47;;;31.21;42.83
27864;BME280;15980;51.092;13.916;2023-08-12T16:00:48;98616.25;;;30.91;44.17
27864;BME280;15980;51.092;13.916;2023-08-12T16:10:48;98608.44;;;30.25;45.47
27864;BME280;15980;51.092;13.916;2023-08-12T16:20:48;98609.47;;;29.49;46.92
27864;BME280;15980;51.092;13.916;2023-08-12T16:30:48;98622.03;;;28.90;48.23
27864;BME280;15980;51.092;13.916;2023-08-12T16:40:49;98611.06;;;28.61;49.47
27864;BME280;15980;51.092;13.916;2023-08-12T16:50:49;98626.25;;;28.54;49.46
27864;BME280;15980;51.092;13.916;2023-08-12T17:00:49;98629.72;;;28.27;50.17
27864;BME280;15980;51.092;13.916;2023-08-12T17:10:50;98722.78;;;27.58;51.31
27864;BME280;15980;51.092;13.916;2023-08-12T17:20:50;98764.72;;;25.60;62.80
27864;BME280;15980;51.092;13.916;2023-08-12T17:30:50;98780.50;;;24.66;72.63
27864;BME280;15980;51.092;13.916;2023-08-12T17:40:51;98758.81;;;22.49;90.04
27864;BME280;15980;51.092;13.916;2023-08-12T17:50:51;98726.75;;;22.27;94.60
27864;BME280;15980;51.092;13.916;2023-08-12T18:00:51;98710.44;;;22.52;95.33
27864;BME280;15980;51.092;13.916;2023-08-12T18:10:51;98694.38;;;22.60;95.05
27864;BME280;15980;51.092;13.916;2023-08-12T18:20:52;98667.69;;;22.55;95.54
27864;BME280;15980;51.092;13.916;2023-08-12T18:30:52;98672.09;;;22.52;94.95
27864;BME280;15980;51.092;13.916;2023-08-12T18:40:52;98700.31;;;22.35;98.70
27864;BME280;15980;51.092;13.916;2023-08-12T18:50:53;98716.47;;;22.20;100.00
27864;BME280;15980;51.092;13.916;2023-08-12T19:00:53;98718.19;;;21.66;100.00
27864;BME280;15980;51.092;13.916;2023-08-12T19:10:54;98721.06;;;21.58;100.00
27864;BME280;15980;51.092;13.916;2023-08-12T19:20:55;98722.78;;;21.45;100.00
27864;BME280;15980;51.092;13.916;2023-08-12T19:30:56;98730.22;;;21.07;100.00
27864;BME280;15980;51.092;13.916;2023-08-12T19:40:57;98717.94;;;20.97;100.00
27864;BME280;15980;51.092;13.916;2023-08-12T19:50:57;98710.47;;;20.80;100.00
27864;BME280;15980;51.092;13.916;2023-08-12T20:00:57;98720.09;;;20.72;100.00
27864;BME280;15980;51.092;13.916;2023-08-12T20:10:58;98731.69;;;20.67;100.00
27864;BME280;15980;51.092;13.916;2023-08-12T20:20:58;98726.06;;;20.74;100.00
27864;BME280;15980;51.092;13.916;2023-08-12T20:30:58;98728.81;;;20.78;100.00
27864;BME280;15980;51.092;13.916;2023-08-12T20:40:59;98736.84;;;20.68;100.00
27864;BME280;15980;51.092;13.916;2023-08-12T20:50:59;98736.88;;;20.61;100.00
27864;BME280;15980;51.092;13.916;2023-08-12T21:00:59;98740.88;;;20.60;100.00
27864;BME280;15980;51.092;13.916;2023-08-12T21:11:00;98739.28;;;20.59;100.00
27864;BME280;15980;51.092;13.916;2023-08-12T21:21:01;98743.31;;;20.55;98.54
27864;BME280;15980;51.092;13.916;2023-08-12T21:31:01;98737.72;;;20.58;95.42
27864;BME280;15980;51.092;13.916;2023-08-12T21:41:01;98748.06;;;20.58;91.56
27864;BME280;15980;51.092;13.916;2023-08-12T21:51:02;98737.28;;;20.63;88.94
27864;BME280;15980;51.092;13.916;2023-08-12T22:01:02;98734.41;;;20.81;87.22
27864;BME280;15980;51.092;13.916;2023-08-12T22:11:02;98755.88;;;20.81;86.39
27864;BME280;15980;51.092;13.916;2023-08-12T22:21:03;98761.09;;;20.79;86.58
27864;BME280;15980;51.092;13.916;2023-08-12T22:31:03;98760.81;;;20.55;87.83
27864;BME280;15980;51.092;13.916;2023-08-12T22:41:03;98769.22;;;20.34;88.80
27864;BME280;15980;51.092;13.916;2023-08-12T22:51:04;98771.25;;;20.26;88.57
27864;BME280;15980;51.092;13.916;2023-08-12T23:01:04;98792.75;;;20.26;88.28
27864;BME280;15980;51.092;13.916;2023-08-12T23:11:04;98784.34;;;20.36;87.88
27864;BME280;15980;51.092;13.916;2023-08-12T23:21:05;98799.91;;;20.45;87.00
27864;BME280;15980;51.092;13.916;2023-08-12T23:31:05;98803.41;;;20.59;85.79
27864;BME280;15980;51.092;13.916;2023-08-12T23:41:05;98806.22;;;20.56;86.24
27864;BME280;15980;51.092;13.916;2023-08-12T23:51:05;98807.06;;;20.46;86.67
